createdAt,value
2018-10-09T08:34:13.043Z,45.00
2018-10-09T08:35:15.276Z,40.80
2018-10-09T08:36:16.172Z,42.50
2018-10-09T08:39:13.389Z,41.10
2018-10-09T08:40:14.751Z,41.10
2018-10-09T08:41:25.736Z,36.70
2018-10-09T08:43:00.859Z,36.70
2018-10-09T08:44:49.418Z,36.60
2018-10-09T08:45:51.355Z,35.30
2018-10-09T08:46:52.231Z,36.40
2018-10-09T08:53:03.182Z,35.30
2018-10-09T08:54:43.734Z,35.30
2018-10-09T08:56:46.403Z,34.80
2018-10-09T08:57:47.220Z,36.20
2018-10-09T09:02:54.106Z,35.40
2018-10-09T09:11:12.138Z,34.30
2018-10-09T09:12:30.988Z,35.10
2018-10-09T09:15:33.830Z,34.20
2018-10-09T09:16:34.688Z,35.60
2018-10-09T09:18:53.200Z,35.40
2018-10-09T09:21:49.608Z,34.60
2018-10-09T09:26:24.696Z,33.40
2018-10-09T09:28:26.769Z,34.70
2018-10-09T09:31:17.245Z,34.80
2018-10-09T09:34:35.307Z,33.60
2018-10-09T09:37:23.257Z,32.50
2018-10-09T09:38:36.809Z,32.90
2018-10-09T09:39:37.644Z,32.60
2018-10-09T09:42:41.893Z,32.00
2018-10-09T09:44:02.732Z,32.00
2018-10-09T09:46:50.647Z,31.10
2018-10-09T09:50:16.334Z,30.80
2018-10-09T09:57:11.745Z,28.70
2018-10-09T10:00:06.382Z,29.30
2018-10-09T10:01:07.106Z,29.70
2018-10-09T10:02:36.052Z,30.00
2018-10-09T10:03:43.265Z,29.80
2018-10-09T10:12:14.952Z,27.70
2018-10-09T10:16:51.224Z,27.60
2018-10-09T10:17:52.905Z,27.50
2018-10-09T10:19:09.249Z,27.60
2018-10-09T10:23:48.369Z,25.60
2018-10-09T10:25:01.650Z,26.80
2018-10-09T10:26:39.246Z,27.30
2018-10-09T10:27:40.112Z,26.30
2018-10-09T10:29:42.596Z,25.70
2018-10-09T10:30:45.250Z,25.60
2018-10-09T10:31:50.887Z,25.10
2018-10-09T10:32:51.655Z,24.90
2018-10-09T10:33:53.398Z,23.50
2018-10-09T10:34:57.768Z,24.30
2018-10-09T10:37:56.594Z,23.50
2018-10-09T10:38:57.332Z,25.10
2018-10-09T10:40:00.928Z,24.20
2018-10-09T10:43:16.124Z,23.20
2018-10-09T10:44:28.332Z,22.80
2018-10-09T10:48:48.747Z,21.60
2018-10-09T10:50:03.776Z,22.20
2018-10-09T10:51:08.631Z,22.80
2018-10-09T10:52:17.774Z,22.60
2018-10-09T10:53:19.911Z,21.90
2018-10-09T10:54:20.654Z,21.00
2018-10-09T10:55:21.355Z,19.90
2018-10-09T10:56:22.987Z,20.10
2018-10-09T10:57:24.784Z,19.90
2018-10-09T10:58:26.397Z,20.10
2018-10-09T10:59:27.109Z,19.70
2018-10-09T11:00:29.420Z,18.70
2018-10-09T11:03:10.315Z,18.90
2018-10-09T11:04:42.570Z,16.70
2018-10-09T11:06:00.911Z,17.40
2018-10-09T11:07:04.720Z,17.10
2018-10-09T11:08:05.610Z,17.10
2018-10-09T11:09:21.512Z,17.40
2018-10-09T11:10:24.099Z,18.20
2018-10-09T11:15:31.365Z,18.30
2018-10-09T11:17:07.177Z,19.00
2018-10-09T11:18:32.487Z,18.50
2018-10-09T11:19:35.843Z,18.00
2018-10-09T11:20:39.134Z,18.50
2018-10-09T11:21:40.026Z,18.60
2018-10-09T11:22:40.706Z,16.90
2018-10-09T11:24:10.732Z,16.50
2018-10-09T11:25:11.857Z,16.50
2018-10-09T11:26:34.052Z,18.20
2018-10-09T11:32:18.069Z,17.20
2018-10-09T11:33:25.514Z,18.00
2018-10-09T11:36:20.421Z,16.80
2018-10-09T11:37:27.820Z,18.10
2018-10-09T11:40:44.718Z,16.70
2018-10-09T11:42:22.016Z,16.50
2018-10-09T11:43:33.234Z,15.90
2018-10-09T11:44:35.779Z,15.90
2018-10-09T11:45:36.525Z,16.80
2018-10-09T11:46:37.206Z,17.20
2018-10-09T11:50:01.140Z,16.60
2018-10-09T11:53:11.727Z,14.80
2018-10-09T11:54:44.302Z,14.10
2018-10-09T11:59:18.655Z,15.00
2018-10-09T12:00:20.656Z,15.30
2018-10-09T12:01:21.967Z,15.90
2018-10-09T12:02:44.212Z,15.60
2018-10-09T12:03:47.317Z,14.50
2018-10-09T12:04:59.465Z,14.90
2018-10-09T12:06:09.319Z,14.00
2018-10-09T12:07:10.641Z,13.90
2018-10-09T12:08:11.370Z,14.10
2018-10-09T12:09:48.078Z,14.50
2018-10-09T12:10:53.395Z,14.50
2018-10-09T12:11:55.419Z,16.20
2018-10-09T12:14:46.108Z,15.10
2018-10-09T12:15:47.033Z,15.10
2018-10-09T12:20:27.622Z,14.10
2018-10-09T12:21:29.752Z,14.20
2018-10-09T12:22:30.495Z,13.60
2018-10-09T12:23:53.477Z,13.00
2018-10-09T12:28:34.895Z,12.30
2018-10-09T12:29:35.594Z,12.50
2018-10-09T12:31:02.536Z,12.90
2018-10-09T12:32:03.299Z,13.00
2018-10-09T12:33:25.238Z,13.30
2018-10-09T12:34:33.455Z,12.80
2018-10-09T12:36:36.592Z,12.80
2018-10-09T12:37:46.090Z,13.10
2018-10-09T12:39:11.969Z,12.20
2018-10-09T12:40:48.959Z,12.80
2018-10-09T12:41:50.877Z,12.40
2018-10-09T12:46:47.660Z,12.70
2018-10-09T12:47:48.503Z,12.90
2018-10-09T12:48:51.235Z,12.40
2018-10-09T12:49:54.008Z,12.50
2018-10-09T12:50:59.653Z,12.60
2018-10-09T12:52:01.066Z,12.60
2018-10-09T12:53:03.635Z,12.80
2018-10-09T12:55:34.518Z,12.20
2018-10-09T12:58:11.912Z,12.20
2018-10-09T13:04:20.416Z,12.30
2018-10-09T13:05:22.881Z,12.10
2018-10-09T13:06:25.548Z,11.60
2018-10-09T13:07:40.060Z,11.70
2018-10-09T13:08:40.800Z,11.80
2018-10-09T13:09:42.688Z,13.20
2018-10-09T13:10:44.541Z,12.50
2018-10-09T13:12:00.022Z,12.80
2018-10-09T13:13:05.795Z,12.60
2018-10-09T13:18:10.126Z,11.50
2018-10-09T13:19:43.285Z,11.50
2018-10-09T13:20:44.139Z,12.00
2018-10-09T13:22:10.280Z,12.20
2018-10-09T13:23:42.713Z,11.70
2018-10-09T13:28:19.385Z,11.60
2018-10-09T13:29:20.702Z,11.60
2018-10-09T13:30:36.776Z,12.30
2018-10-09T13:31:41.299Z,11.60
2018-10-09T13:38:25.976Z,11.10
2018-10-09T13:39:27.687Z,11.90
2018-10-09T13:42:20.103Z,11.30
2018-10-09T13:45:15.999Z,12.50
2018-10-09T13:46:22.158Z,11.90
2018-10-09T13:47:23.150Z,12.10
2018-10-09T13:48:46.762Z,12.30
2018-10-09T13:50:10.010Z,12.30
2018-10-09T13:51:10.712Z,11.50
2018-10-09T13:52:11.360Z,11.40
2018-10-09T13:53:28.914Z,11.30
2018-10-09T13:55:10.857Z,11.70
2018-10-09T13:56:16.632Z,11.70
2018-10-09T13:59:18.820Z,12.60
2018-10-09T14:00:21.888Z,13.70
2018-10-09T14:03:10.102Z,10.60
2018-10-09T14:04:10.793Z,10.00
2018-10-09T14:07:12.995Z,10.00
2018-10-09T14:11:49.323Z,11.50
2018-10-09T14:13:20.186Z,12.80
2018-10-09T14:14:47.260Z,12.50
2018-10-09T14:15:48.101Z,10.50
2018-10-09T14:18:15.029Z,11.40
2018-10-09T14:19:21.563Z,10.80
2018-10-09T14:20:22.423Z,11.20
2018-10-09T14:24:59.223Z,10.70
2018-10-09T14:26:01.060Z,12.00
2018-10-09T14:27:04.384Z,11.00
2018-10-09T14:28:09.999Z,10.10
2018-10-09T14:29:14.219Z,10.90
2018-10-09T14:30:15.058Z,10.90
2018-10-09T14:31:19.507Z,9.80
2018-10-09T14:32:22.058Z,9.70
2018-10-09T14:35:38.930Z,10.80
2018-10-09T14:37:11.420Z,10.80
2018-10-09T14:39:16.640Z,10.30
2018-10-09T14:40:38.375Z,10.30
2018-10-09T14:42:11.022Z,10.00
2018-10-09T14:43:13.088Z,10.50
2018-10-09T14:47:11.670Z,9.60
2018-10-09T14:48:13.724Z,9.40
2018-10-09T14:51:07.643Z,9.80
2018-10-09T14:52:10.027Z,9.70
2018-10-09T14:55:01.333Z,9.70
2018-10-09T14:56:02.519Z,10.10
2018-10-09T14:57:03.532Z,9.80
2018-10-09T14:58:05.287Z,9.60
2018-10-09T14:59:07.213Z,10.10
2018-10-09T15:00:08.786Z,10.10
2018-10-09T15:01:09.611Z,10.10
2018-10-09T15:07:37.267Z,9.10
2018-10-09T15:08:52.163Z,9.50
2018-10-09T15:10:06.408Z,15.30
2018-10-09T15:11:37.329Z,13.60
2018-10-09T15:14:28.059Z,12.10
2018-10-09T15:15:31.142Z,12.10
2018-10-09T15:17:12.742Z,10.40
2018-10-09T15:20:14.781Z,9.00
2018-10-09T15:21:41.167Z,8.70
2018-10-09T15:22:41.969Z,8.80
2018-10-09T15:23:43.161Z,8.90
2018-10-09T15:24:44.221Z,8.60
2018-10-09T15:25:45.274Z,8.80
2018-10-09T15:28:41.105Z,8.40
2018-10-09T15:30:17.170Z,8.70
2018-10-09T15:31:29.714Z,8.70
2018-10-09T15:36:42.738Z,8.20
2018-10-09T15:39:30.532Z,8.40
2018-10-09T15:40:31.469Z,8.80
2018-10-09T15:43:21.466Z,8.40
2018-10-09T15:44:22.120Z,8.10
2018-10-09T15:47:10.207Z,8.50
2018-10-09T15:49:59.807Z,8.60
2018-10-09T15:51:00.659Z,7.70
2018-10-09T15:52:09.151Z,7.70
2018-10-09T15:53:09.848Z,7.90
2018-10-09T15:54:15.009Z,8.00
2018-10-09T15:55:43.796Z,7.70
2018-10-09T15:56:45.290Z,8.00
2018-10-09T15:59:38.673Z,9.10
2018-10-09T16:00:40.016Z,7.80
2018-10-09T16:01:40.715Z,8.30
2018-10-09T16:02:41.591Z,7.80
2018-10-09T16:03:45.548Z,8.50
2018-10-09T16:04:57.806Z,8.50
2018-10-09T16:11:11.928Z,8.60
2018-10-09T16:12:12.649Z,8.80
2018-10-09T16:13:16.602Z,9.00
2018-10-09T16:14:17.538Z,9.00
2018-10-09T16:17:40.542Z,9.50
2018-10-09T16:20:47.073Z,10.00
2018-10-09T16:21:50.763Z,10.00
2018-10-09T16:23:13.598Z,10.00
2018-10-09T16:25:45.698Z,10.60
2018-10-09T16:26:46.595Z,10.40
2018-10-09T16:27:48.898Z,11.70
2018-10-09T16:31:17.674Z,11.40
2018-10-09T16:32:31.736Z,10.70
2018-10-09T16:33:40.750Z,10.40
2018-10-09T16:35:06.429Z,13.00
2018-10-09T16:36:47.864Z,13.50
2018-10-09T16:39:37.573Z,11.50
2018-10-09T16:40:46.744Z,12.10
2018-10-09T16:41:47.483Z,12.40
2018-10-09T16:43:00.424Z,11.50
2018-10-09T16:44:08.423Z,10.80
2018-10-09T16:50:00.941Z,11.00
2018-10-09T16:51:09.858Z,11.30
2018-10-09T16:52:11.784Z,12.20
2018-10-09T16:55:01.767Z,12.80
2018-10-09T16:56:26.665Z,11.80
2018-10-09T16:59:44.078Z,12.60
2018-10-09T17:00:54.000Z,13.20
2018-10-09T17:02:19.870Z,13.40
2018-10-09T17:03:39.874Z,14.50
2018-10-09T17:05:33.783Z,13.00
2018-10-09T17:07:10.776Z,13.40
2018-10-09T17:08:19.049Z,13.40
2018-10-09T17:09:20.075Z,14.10
2018-10-09T17:10:21.768Z,13.70
2018-10-09T17:11:23.530Z,13.50
2018-10-09T17:12:24.355Z,14.20
2018-10-09T17:15:32.751Z,15.20
2018-10-09T17:18:26.837Z,15.80
2018-10-09T17:19:31.320Z,16.20
2018-10-09T17:20:52.791Z,17.40
2018-10-09T17:21:59.849Z,19.00
2018-10-09T17:23:01.307Z,17.90
2018-10-09T17:24:03.073Z,17.90
2018-10-09T17:27:14.574Z,17.50
2018-10-09T17:28:18.438Z,17.90
2018-10-09T17:30:01.590Z,17.90
2018-10-09T17:31:02.741Z,17.90
